Time;durP1;ratioP1;P1;durP2;ratioP2;P2;SDS_P1;SDS_P2;PMS_P1;PMS_P2;Temp;Humidity;BMP_temperature;BMP_pressure;BME280_temperature;BME280_humidity;BME280_pressure;Samples;Min_cycle;Max_cycle;Signal;HPM_P1;HPM_P2
2021/10/27 00:00:31;;;;;;;13.90;7.22;;;;;;;5.81;60.02;101407.00;1704102;80;21393;-57
2021/10/27 00:02:57;;;;;;;11.50;6.33;;;;;;;5.94;59.92;101405.08;1773094;79;21046;-57
2021/10/27 00:05:24;;;;;;;11.85;6.83;;;;;;;6.01;59.86;101404.38;1735510;80;22065;-57
2021/10/27 00:07:52;;;;;;;10.08;6.45;;;;;;;6.01;59.85;101403.08;1745307;80;21082;-58
2021/10/27 00:10:19;;;;;;;12.70;6.95;;;;;;;5.99;59.88;101402.30;1743985;80;21015;-56
2021/10/27 00:12:46;;;;;;;11.35;5.95;;;;;;;5.99;59.88;101397.08;1770415;79;21088;-58
2021/10/27 00:15:14;;;;;;;12.90;6.33;;;;;;;5.97;59.96;101401.52;1734973;79;21018;-58
2021/10/27 00:17:41;;;;;;;10.13;5.95;;;;;;;5.92;60.09;101404.77;1749343;80;21176;-57
2021/10/27 00:20:08;;;;;;;13.78;6.53;;;;;;;5.86;60.24;101393.28;1759356;80;21320;-58
2021/10/27 00:22:36;;;;;;;10.30;5.97;;;;;;;5.84;60.46;101401.64;1740758;80;21064;-58
2021/10/27 00:25:03;;;;;;;9.68;5.67;;;;;;;5.79;60.61;101395.78;1717248;80;21133;-58
2021/10/27 00:27:30;;;;;;;8.98;5.70;;;;;;;5.75;60.64;101391.15;1710222;80;21070;-58
2021/10/27 00:29:56;;;;;;;11.63;6.05;;;;;;;5.73;60.80;101392.52;1715935;81;21090;-56
2021/10/27 00:32:22;;;;;;;11.48;6.45;;;;;;;5.72;61.08;101391.28;1749239;80;21031;-57
2021/10/27 00:34:49;;;;;;;10.30;6.12;;;;;;;5.68;61.07;101391.88;1714097;80;21022;-56
2021/10/27 00:37:15;;;;;;;11.38;6.05;;;;;;;5.70;61.10;101390.03;1743223;80;21109;-57
2021/10/27 00:39:42;;;;;;;11.12;6.30;;;;;;;5.79;61.08;101394.00;1706857;82;21108;-56
2021/10/27 00:42:11;;;;;;;9.75;6.15;;;;;;;5.84;61.10;101384.20;1703972;81;22143;-56
2021/10/27 00:44:41;;;;;;;9.68;5.72;;;;;;;5.85;61.16;101387.65;1714431;81;21102;-56
2021/10/27 00:47:12;;;;;;;10.95;6.05;;;;;;;5.82;61.24;101393.03;1743026;80;21031;-57
2021/10/27 00:49:41;;;;;;;12.00;6.40;;;;;;;5.78;61.38;101392.30;1749053;80;21054;-57
2021/10/27 00:52:12;;;;;;;11.28;6.12;;;;;;;5.74;61.47;101390.28;1710904;80;21054;-57
2021/10/27 00:54:40;;;;;;;9.75;6.00;;;;;;;5.72;61.57;101394.73;1707479;81;21188;-57
2021/10/27 00:57:07;;;;;;;15.05;6.55;;;;;;;5.69;61.65;101392.24;1732322;81;21050;-58
2021/10/27 00:59:40;;;;;;;12.10;5.87;;;;;;;5.66;61.74;101394.14;1705032;80;21090;-58
2021/10/27 01:02:07;;;;;;;10.32;5.97;;;;;;;5.62;61.88;101388.67;1797451;79;21010;-56
2021/10/27 01:04:34;;;;;;;10.90;6.53;;;;;;;5.59;62.16;101383.95;1793789;78;21065;-56
2021/10/27 01:07:01;;;;;;;10.58;5.47;;;;;;;5.59;62.17;101380.03;1790211;78;21493;-56
2021/10/27 01:09:28;;;;;;;12.28;6.70;;;;;;;5.69;62.11;101377.88;1799383;78;21075;-56
2021/10/27 01:11:55;;;;;;;10.98;7.15;;;;;;;5.72;62.07;101373.83;1762074;79;21135;-56
2021/10/27 01:14:22;;;;;;;10.13;6.28;;;;;;;5.71;62.08;101377.34;1785682;78;21082;-56
2021/10/27 01:16:48;;;;;;;10.88;6.40;;;;;;;5.66;62.19;101378.01;1729042;79;21692;-56
2021/10/27 01:19:15;;;;;;;8.90;6.03;;;;;;;5.64;62.40;101375.09;1752542;81;21813;-56
2021/10/27 01:21:41;;;;;;;9.65;5.85;;;;;;;5.58;62.66;101368.34;1745615;80;21106;-58
2021/10/27 01:24:08;;;;;;;9.83;6.00;;;;;;;5.53;62.58;101365.96;1792321;78;22114;-56
2021/10/27 01:26:35;;;;;;;9.63;6.15;;;;;;;5.49;62.71;101361.77;1794965;78;21026;-56
2021/10/27 01:29:01;;;;;;;14.28;7.33;;;;;;;5.46;62.81;101365.81;1795006;79;21070;-56
2021/10/27 01:31:28;;;;;;;12.53;6.45;;;;;;;5.42;63.05;101359.51;1797814;78;21134;-56
2021/10/27 01:33:55;;;;;;;13.45;6.58;;;;;;;5.44;63.18;101366.81;1760347;79;21035;-57
2021/10/27 01:36:22;;;;;;;12.15;6.12;;;;;;;5.49;63.03;101359.16;1763034;79;21197;-56
2021/10/27 01:38:49;;;;;;;10.00;5.92;;;;;;;5.54;63.08;101365.03;1796023;78;21027;-56
2021/10/27 01:41:16;;;;;;;9.25;6.40;;;;;;;5.52;63.19;101363.41;1758985;81;21117;-56
2021/10/27 01:43:55;;;;;;;8.45;5.70;;;;;;;5.49;63.24;101345.27;1753234;80;21164;-57
2021/10/27 01:46:33;;;;;;;11.20;6.17;;;;;;;5.44;63.22;101349.38;1787818;78;21489;-56
2021/10/27 01:49:01;;;;;;;10.93;6.50;;;;;;;5.39;63.29;101351.34;1752921;79;21145;-56
2021/10/27 01:51:27;;;;;;;9.25;5.65;;;;;;;5.33;63.68;101357.68;1761002;79;21004;-56
2021/10/27 01:53:55;;;;;;;11.28;7.12;;;;;;;5.29;63.66;101353.48;1741753;80;21077;-56
2021/10/27 01:56:23;;;;;;;12.13;7.08;;;;;;;5.26;63.86;101345.81;1709032;81;22152;-56
2021/10/27 01:58:53;;;;;;;15.05;6.55;;;;;;;5.29;64.06;101351.34;1757005;80;21604;-56
2021/10/27 02:01:19;;;;;;;13.38;6.40;;;;;;;5.36;63.89;101339.28;1746904;80;21038;-56
2021/10/27 02:03:45;;;;;;;11.53;6.90;;;;;;;5.40;63.89;101344.75;1745950;80;21113;-57
2021/10/27 02:06:12;;;;;;;12.07;6.10;;;;;;;5.39;63.98;101348.27;1743667;80;21114;-56
2021/10/27 02:08:38;;;;;;;10.75;6.35;;;;;;;5.35;64.06;101346.70;1768849;79;21142;-57
2021/10/27 02:11:05;;;;;;;9.93;6.20;;;;;;;5.34;64.17;101344.16;1774385;79;21051;-57
2021/10/27 02:13:33;;;;;;;9.88;6.08;;;;;;;5.30;64.25;101344.75;1739707;80;21008;-56
2021/10/27 02:15:59;;;;;;;11.88;6.40;;;;;;;5.26;64.52;101344.51;1769978;80;21047;-56
2021/10/27 02:18:26;;;;;;;13.40;7.15;;;;;;;5.22;64.59;101348.14;1710606;82;21560;-56
2021/10/27 02:20:53;;;;;;;11.08;6.08;;;;;;;5.20;64.64;101336.46;1762682;79;21184;-55
2021/10/27 02:23:22;;;;;;;11.05;6.12;;;;;;;5.31;64.60;101345.59;1739467;80;21063;-55
2021/10/27 02:25:48;;;;;;;13.93;6.05;;;;;;;5.33;64.54;101338.54;1758237;80;21103;-55
2021/10/27 02:28:15;;;;;;;11.20;5.55;;;;;;;5.32;64.57;101341.62;1740817;80;21082;-55
2021/10/27 02:30:41;;;;;;;9.55;5.45;;;;;;;5.28;64.70;101340.06;1774714;79;21089;-56
2021/10/27 02:33:08;;;;;;;9.60;5.65;;;;;;;5.24;64.73;101341.09;1735302;80;21244;-56
2021/10/27 02:35:35;;;;;;;11.53;5.90;;;;;;;5.22;64.88;101335.09;1762792;79;21109;-56
2021/10/27 02:38:01;;;;;;;10.23;6.00;;;;;;;5.18;64.85;101331.77;1761643;79;21023;-56
2021/10/27 02:40:28;;;;;;;11.60;6.10;;;;;;;5.15;64.98;101339.72;1766260;79;21046;-56
2021/10/27 02:42:55;;;;;;;10.85;6.20;;;;;;;5.16;65.19;101336.65;1731035;80;21096;-56
2021/10/27 02:45:21;;;;;;;11.65;5.95;;;;;;;5.23;65.10;101337.23;1743850;80;21221;-56
2021/10/27 02:47:48;;;;;;;9.10;5.87;;;;;;;5.27;65.13;101326.61;1746455;80;22376;-56
2021/10/27 02:50:14;;;;;;;10.32;6.10;;;;;;;5.25;65.22;101331.06;1770913;79;21019;-57
2021/10/27 02:52:44;;;;;;;10.38;5.78;;;;;;;5.24;65.21;101338.95;1761558;80;21536;-59
2021/10/27 02:55:09;;;;;;;10.28;5.75;;;;;;;5.20;65.27;101328.63;1738743;80;21114;-61
2021/10/27 02:57:38;;;;;;;12.20;6.42;;;;;;;5.16;65.43;101326.21;1797290;78;21146;-58
2021/10/27 03:00:06;;;;;;;11.18;5.40;;;;;;;5.14;65.57;101318.91;1799246;79;21015;-57
2021/10/27 03:02:35;;;;;;;11.57;5.47;;;;;;;5.11;65.61;101313.38;1802181;77;20979;-58
2021/10/27 03:05:02;;;;;;;11.55;6.17;;;;;;;5.09;65.67;101313.05;1806415;79;22454;-57
2021/10/27 03:07:29;;;;;;;11.48;6.12;;;;;;;5.11;65.79;101312.08;1800244;77;21045;-58
2021/10/27 03:09:55;;;;;;;11.63;6.37;;;;;;;5.19;65.75;101316.95;1765904;79;21088;-58
2021/10/27 03:12:22;;;;;;;11.38;6.20;;;;;;;5.24;65.69;101318.91;1785884;77;21046;-58
2021/10/27 03:14:48;;;;;;;9.60;5.45;;;;;;;5.23;65.79;101315.92;1798018;77;21339;-57
2021/10/27 03:17:19;;;;;;;11.20;6.10;;;;;;;5.19;65.99;101315.22;1766802;79;21588;-57
2021/10/27 03:19:44;;;;;;;9.88;5.75;;;;;;;5.18;66.11;101319.19;1795405;78;21142;-58
2021/10/27 03:22:11;;;;;;;10.98;5.33;;;;;;;5.14;66.09;101317.14;1804545;77;21216;-58
2021/10/27 03:24:37;;;;;;;8.98;5.75;;;;;;;5.12;66.13;101318.98;1805653;77;21117;-58
2021/10/27 03:27:04;;;;;;;11.83;6.62;;;;;;;5.07;66.29;101315.72;1793038;78;21039;-58
2021/10/27 03:29:30;;;;;;;10.35;5.70;;;;;;;5.09;66.41;101317.80;1803553;78;21093;-57
2021/10/27 03:31:57;;;;;;;12.15;6.40;;;;;;;5.17;66.24;101312.27;1803937;77;21027;-57
2021/10/27 03:34:23;;;;;;;10.70;5.30;;;;;;;5.23;66.13;101315.92;1803040;77;21018;-57
2021/10/27 03:36:49;;;;;;;11.25;5.85;;;;;;;5.26;66.13;101316.23;1798019;78;21031;-58
2021/10/27 03:39:16;;;;;;;8.73;5.45;;;;;;;5.23;66.20;101312.02;1762194;78;21004;-58
2021/10/27 03:41:43;;;;;;;10.88;6.22;;;;;;;5.18;66.24;101300.92;1797518;77;21038;-57
2021/10/27 03:44:10;;;;;;;14.70;5.67;;;;;;;5.13;66.33;101304.19;1797365;77;21073;-58
2021/10/27 03:46:37;;;;;;;10.55;6.00;;;;;;;5.10;66.38;101300.41;1725999;80;21067;-59
2021/10/27 03:49:04;;;;;;;10.35;5.58;;;;;;;5.03;66.49;101295.44;1796207;77;21575;-58
2021/10/27 03:51:31;;;;;;;10.45;5.97;;;;;;;4.98;66.59;101290.87;1767392;78;21540;-57
2021/10/27 03:53:57;;;;;;;9.55;5.45;;;;;;;4.97;66.70;101290.47;1803282;78;21038;-58
2021/10/27 03:56:24;;;;;;;8.63;5.40;;;;;;;4.98;66.76;101289.56;1797312;77;20980;-58
2021/10/27 03:58:50;;;;;;;13.28;6.30;;;;;;;5.08;66.63;101287.86;1794854;77;21775;-58
2021/10/27 04:01:17;;;;;;;11.57;5.28;;;;;;;5.14;66.57;101292.83;1792205;77;21005;-57
2021/10/27 04:03:43;;;;;;;9.18;6.00;;;;;;;5.16;66.58;101300.12;1769110;78;21031;-57
2021/10/27 04:06:10;;;;;;;11.53;6.37;;;;;;;5.13;66.62;101295.06;1791742;79;21047;-57
2021/10/27 04:08:38;;;;;;;10.30;5.92;;;;;;;5.07;66.72;101297.45;1794824;78;21115;-57
2021/10/27 04:11:04;;;;;;;8.35;5.50;;;;;;;5.01;66.78;101292.05;1795728;78;21100;-57
2021/10/27 04:13:31;;;;;;;10.10;6.05;;;;;;;4.96;66.93;101295.31;1798063;78;21102;-57
2021/10/27 04:15:58;;;;;;;12.55;6.20;;;;;;;4.91;67.08;101301.61;1769404;79;22080;-57
2021/10/27 04:18:24;;;;;;;10.95;6.85;;;;;;;4.87;67.37;101295.67;1796266;78;21413;-55
2021/10/27 04:20:50;;;;;;;12.00;6.47;;;;;;;4.93;67.75;101300.65;1792500;78;21574;-57
2021/10/27 04:23:18;;;;;;;8.83;5.15;;;;;;;5.05;67.40;101291.46;1788644;78;21948;-58
2021/10/27 04:25:45;;;;;;;9.58;5.75;;;;;;;5.11;67.03;101290.34;1796512;78;21015;-58
2021/10/27 04:28:11;;;;;;;9.78;5.30;;;;;;;5.07;67.01;101287.48;1793404;77;21011;-59
2021/10/27 04:30:37;;;;;;;10.32;6.10;;;;;;;5.06;66.95;101296.21;1788122;78;21019;-58
2021/10/27 04:33:04;;;;;;;10.60;5.40;;;;;;;4.98;67.01;101288.27;1794089;78;21582;-59
2021/10/27 04:35:30;;;;;;;9.13;5.80;;;;;;;4.93;67.07;101291.98;1790576;77;21121;-58
2021/10/27 04:37:57;;;;;;;8.88;5.40;;;;;;;4.87;67.34;101293.53;1794011;77;21090;-59
2021/10/27 04:40:23;;;;;;;10.65;6.58;;;;;;;4.82;67.49;101291.98;1767417;78;21035;-59
2021/10/27 04:42:49;;;;;;;10.38;6.05;;;;;;;4.84;67.51;101295.37;1792411;77;21003;-58
2021/10/27 04:45:17;;;;;;;9.35;5.95;;;;;;;4.93;67.35;101291.52;1765044;78;21003;-58
2021/10/27 04:47:43;;;;;;;10.68;5.50;;;;;;;4.99;67.25;101291.27;1798239;77;21164;-58
2021/10/27 04:50:10;;;;;;;11.20;5.95;;;;;;;5.01;67.29;101290.75;1797636;78;20975;-58
2021/10/27 04:52:37;;;;;;;9.53;5.70;;;;;;;4.97;67.44;101292.23;1790719;77;21497;-58
2021/10/27 04:55:04;;;;;;;13.25;6.12;;;;;;;4.91;67.62;101290.74;1786230;78;21027;-59
2021/10/27 04:57:31;;;;;;;9.98;6.35;;;;;;;4.87;67.98;101290.46;1789427;77;21086;-59
2021/10/27 04:59:57;;;;;;;11.18;6.30;;;;;;;4.83;68.32;101291.05;1790826;77;21161;-58
2021/10/27 05:02:24;;;;;;;11.45;6.50;;;;;;;4.82;68.36;101293.72;1791515;78;21035;-58
2021/10/27 05:04:51;;;;;;;12.60;5.75;;;;;;;4.83;68.15;101298.88;1769023;77;21007;-58
2021/10/27 05:07:18;;;;;;;9.18;5.08;;;;;;;4.95;67.91;101297.52;1791061;77;21010;-58
2021/10/27 05:09:45;;;;;;;9.50;5.72;;;;;;;5.00;67.83;101289.04;1793609;77;21101;-57
2021/10/27 05:12:11;;;;;;;9.83;5.65;;;;;;;5.01;67.82;101288.14;1793638;77;21942;-56
2021/10/27 05:14:43;;;;;;;10.70;5.92;;;;;;;5.00;67.84;101303.84;1786896;77;21098;-57
2021/10/27 05:17:10;;;;;;;12.07;6.42;;;;;;;5.00;67.88;101310.38;1800438;78;22188;-56
2021/10/27 05:19:39;;;;;;;10.23;5.95;;;;;;;4.99;67.87;101304.31;1793849;78;21905;-57
2021/10/27 05:22:06;;;;;;;12.10;6.62;;;;;;;4.95;67.92;101315.77;1799827;77;20967;-58
2021/10/27 05:24:32;;;;;;;9.98;6.25;;;;;;;4.95;68.06;101313.62;1797785;78;21115;-57
2021/10/27 05:26:59;;;;;;;14.90;6.25;;;;;;;5.00;68.03;101320.34;1773849;79;21103;-58
2021/10/27 05:29:26;;;;;;;9.80;6.42;;;;;;;5.13;67.83;101325.91;1785737;77;21028;-58
2021/10/27 05:31:52;;;;;;;10.68;5.33;;;;;;;5.25;67.74;101314.56;1789267;77;21560;-58
2021/10/27 05:34:19;;;;;;;10.23;5.58;;;;;;;5.30;67.61;101316.05;1796399;77;21075;-58
2021/10/27 05:36:46;;;;;;;11.30;6.70;;;;;;;5.30;67.65;101311.30;1794308;77;21031;-58
2021/10/27 05:39:14;;;;;;;8.93;6.03;;;;;;;5.33;67.56;101321.14;1773614;78;21061;-61
2021/10/27 05:41:49;;;;;;;10.60;6.58;;;;;;;5.34;67.50;101325.89;1764971;78;21004;-59
2021/10/27 05:44:12;;;;;;;12.82;6.95;;;;;;;5.34;67.48;101330.65;1793538;77;21054;-58
2021/10/27 05:46:41;;;;;;;14.73;6.28;;;;;;;5.32;67.55;101329.03;1791368;77;21635;-59
2021/10/27 05:51:44;;;;;;;8.85;5.72;;;;;;;5.35;67.64;101327.14;1795396;77;21023;-57
2021/10/27 05:56:53;;;;;;;32.80;9.08;;;;;;;5.57;67.36;101332.27;1791748;77;21106;-59
2021/10/27 05:59:19;;;;;;;21.85;8.00;;;;;;;5.65;67.25;101330.63;1781806;78;21063;-58
2021/10/27 06:01:46;;;;;;;14.80;6.65;;;;;;;5.68;67.28;101334.86;1791222;78;22207;-57
2021/10/27 06:04:12;;;;;;;11.78;7.20;;;;;;;5.72;67.07;101328.60;1800125;78;21508;-56
2021/10/27 06:06:38;;;;;;;20.37;7.00;;;;;;;5.70;67.03;101335.63;1796971;77;21016;-55
2021/10/27 06:09:06;;;;;;;10.72;5.62;;;;;;;5.69;67.22;101328.73;1790490;78;21039;-56
2021/10/27 06:11:33;;;;;;;10.58;6.37;;;;;;;5.69;67.21;101329.57;1793741;77;21654;-57
2021/10/27 06:14:02;;;;;;;12.80;6.62;;;;;;;5.72;67.32;101324.22;1789325;78;21132;-56
2021/10/27 06:16:30;;;;;;;10.40;6.28;;;;;;;5.85;67.21;101317.12;1789462;78;21067;-54
2021/10/27 06:18:57;;;;;;;15.00;6.25;;;;;;;5.97;67.20;101324.45;1766188;77;22252;-60
2021/10/27 06:21:23;;;;;;;10.40;6.60;;;;;;;6.01;67.06;101336.45;1796917;78;21054;-58
2021/10/27 06:23:50;;;;;;;37.15;8.68;;;;;;;6.01;67.06;101344.75;1795219;78;21419;-57
2021/10/27 06:26:20;;;;;;;25.00;8.75;;;;;;;6.00;67.02;101340.00;1757644;78;21094;-58
2021/10/27 06:29:01;;;;;;;23.27;10.10;;;;;;;5.98;67.19;101348.34;1791929;78;21040;-57
2021/10/27 06:31:28;;;;;;;15.35;8.28;;;;;;;6.01;67.21;101338.22;1794619;77;20994;-58
2021/10/27 06:34:00;;;;;;;13.03;7.03;;;;;;;6.08;67.17;101345.69;1789347;77;21071;-58
2021/10/27 06:47:10;;;;;;;35.00;10.55;;;;;;;6.46;66.55;101351.38;1770308;78;21078;-57
2021/10/27 06:49:37;;;;;;;10.95;6.95;;;;;;;6.50;66.57;101356.84;1762899;78;21040;-58
2021/10/27 06:52:05;;;;;;;11.00;6.33;;;;;;;6.53;66.51;101357.17;1766496;79;21039;-59
2021/10/27 06:54:31;;;;;;;14.03;6.78;;;;;;;6.56;66.52;101359.17;1752915;79;21619;-57
2021/10/27 06:56:58;;;;;;;11.38;7.08;;;;;;;6.66;66.26;101356.97;1730503;80;21024;-57
2021/10/27 06:59:34;;;;;;;13.05;6.83;;;;;;;6.81;65.91;101354.92;1739534;80;21090;-57
2021/10/27 07:07:17;;;;;;;13.78;7.50;;;;;;;7.01;65.56;101359.61;1767894;78;20999;-57
2021/10/27 07:15:17;;;;;;;20.77;8.23;;;;;;;7.20;64.87;101347.31;1795246;78;21046;-57
2021/10/27 07:17:37;;;;;;;14.83;8.75;;;;;;;7.23;64.59;101326.70;1793154;77;21520;-58
2021/10/27 07:20:06;;;;;;;15.13;8.30;;;;;;;7.33;64.34;101319.19;1795931;78;20980;-58
2021/10/27 07:22:34;;;;;;;12.75;6.85;;;;;;;7.47;63.81;101310.17;1800938;78;21043;-58
2021/10/27 07:25:02;;;;;;;13.10;7.70;;;;;;;7.61;63.57;101310.75;1794107;79;21082;-59
2021/10/27 07:27:29;;;;;;;12.90;7.10;;;;;;;7.67;63.21;101316.15;1794966;78;21539;-60
2021/10/27 07:29:55;;;;;;;33.13;11.03;;;;;;;7.69;62.93;101306.42;1771005;77;21110;-60
2021/10/27 07:32:22;;;;;;;11.22;7.20;;;;;;;7.71;62.76;101301.95;1767445;78;21095;-59
2021/10/27 07:34:54;;;;;;;23.07;8.25;;;;;;;7.74;62.84;101310.95;1789602;78;21082;-59
2021/10/27 07:40:33;;;;;;;11.50;7.42;;;;;;;7.79;62.25;101321.56;1768546;79;21113;-59
2021/10/27 07:42:38;;;;;;;15.70;7.60;;;;;;;7.79;62.11;101303.22;1789074;77;21086;-59
2021/10/27 07:45:05;;;;;;;28.23;9.13;;;;;;;7.79;62.22;101308.94;1768689;79;22053;-58
2021/10/27 07:47:33;;;;;;;18.75;8.05;;;;;;;7.90;62.40;101313.14;1796421;78;20911;-59
2021/10/27 07:49:59;;;;;;;12.95;6.95;;;;;;;8.12;62.03;101313.26;1787628;78;21567;-59
2021/10/27 07:52:26;;;;;;;13.65;7.12;;;;;;;8.31;61.47;101314.42;1766039;77;21082;-58
2021/10/27 07:54:54;;;;;;;12.90;7.10;;;;;;;8.40;60.44;101316.52;1767426;78;21111;-60
2021/10/27 07:57:21;;;;;;;11.00;7.00;;;;;;;8.42;59.84;101313.81;1722721;80;21133;-60
2021/10/27 07:59:48;;;;;;;13.35;7.22;;;;;;;8.41;60.07;101311.66;1798490;78;21980;-59
2021/10/27 08:02:15;;;;;;;19.17;7.60;;;;;;;8.45;59.91;101312.36;1797822;77;21118;-61
2021/10/27 08:04:42;;;;;;;16.32;6.87;;;;;;;8.45;59.77;101304.02;1800091;77;21031;-59
2021/10/27 08:07:09;;;;;;;36.55;8.38;;;;;;;8.45;59.78;101300.08;1797023;78;21882;-61
2021/10/27 08:12:18;;;;;;;13.75;6.50;;;;;;;8.58;59.48;101309.91;1822552;77;23238;-58
2021/10/27 08:14:47;;;;;;;22.27;8.20;;;;;;;8.57;59.31;101305.09;1801540;78;20889;-62
2021/10/27 08:17:13;;;;;;;13.22;8.18;;;;;;;8.65;58.85;101308.13;1796921;79;21783;-61
2021/10/27 08:19:40;;;;;;;13.32;7.53;;;;;;;8.70;58.90;101317.06;1798441;78;21055;-61
2021/10/27 08:22:08;;;;;;;10.50;7.05;;;;;;;8.77;58.71;101311.00;1703522;82;21529;-62
2021/10/27 08:24:39;;;;;;;17.45;7.25;;;;;;;8.84;58.32;101305.32;1713954;82;22455;-63
2021/10/27 08:27:08;;;;;;;11.08;7.17;;;;;;;8.87;58.22;101307.73;1771998;80;21002;-60
2021/10/27 08:29:38;;;;;;;14.03;6.53;;;;;;;8.90;58.30;101298.86;1738461;80;21040;-67
2021/10/27 08:32:14;;;;;;;12.98;7.05;;;;;;;8.98;58.37;101300.56;1735966;80;21137;-66
2021/10/27 08:34:42;;;;;;;14.13;7.67;;;;;;;9.10;58.08;101297.21;1769626;80;21030;-65
2021/10/27 08:37:07;;;;;;;13.15;7.15;;;;;;;9.22;57.62;101296.11;1763983;80;21043;-67
2021/10/27 08:39:34;;;;;;;13.00;7.37;;;;;;;9.30;57.37;101293.88;1757991;80;21368;-69
2021/10/27 08:42:06;;;;;;;18.15;7.40;;;;;;;9.38;57.04;101296.02;1746050;81;21532;-68
2021/10/27 08:44:32;;;;;;;11.45;7.15;;;;;;;9.42;57.13;101287.03;1710913;80;21034;-68
2021/10/27 08:47:01;;;;;;;12.73;7.40;;;;;;;9.51;57.08;101274.63;1689318;81;21062;-67
2021/10/27 08:49:28;;;;;;;14.10;7.08;;;;;;;9.63;56.56;101275.66;1738800;81;21012;-66
2021/10/27 08:51:57;;;;;;;12.25;7.03;;;;;;;9.73;56.45;101289.92;1729788;80;21105;-67
2021/10/27 08:54:30;;;;;;;21.62;8.95;;;;;;;9.81;56.19;101291.60;1732582;81;23356;-67
2021/10/27 08:56:58;;;;;;;13.32;8.05;;;;;;;9.86;55.80;101291.33;1730917;81;21129;-66
2021/10/27 08:59:48;;;;;;;23.70;8.90;;;;;;;9.93;55.55;101291.30;1732124;81;21016;-68
2021/10/27 09:02:23;;;;;;;11.57;7.40;;;;;;;10.01;55.41;101289.52;1751461;79;21078;-68
2021/10/27 09:36:07;;;;;;;16.23;7.87;;;;;;;11.55;50.31;101287.27;1769243;80;21133;-69
2021/10/27 09:47:12;;;;;;;17.30;9.03;;;;;;;11.82;49.74;101275.73;1771601;78;21761;-69
2021/10/27 10:06:13;;;;;;;12.43;8.40;;;;;;;12.28;48.05;101264.52;1773114;80;21066;-65
2021/10/27 10:08:41;;;;;;;17.65;8.95;;;;;;;12.27;48.56;101258.86;1764368;78;21078;-69
2021/10/27 10:11:11;;;;;;;11.63;6.78;;;;;;;12.29;48.63;101249.06;1749174;80;21052;-67
2021/10/27 10:13:41;;;;;;;14.53;8.10;;;;;;;12.37;48.87;101241.42;1718659;80;21055;-69
2021/10/27 10:16:08;;;;;;;12.35;8.20;;;;;;;12.46;48.35;101242.53;1734476;81;21102;-68
2021/10/27 10:18:34;;;;;;;13.03;7.37;;;;;;;12.54;48.24;101246.77;1728869;81;21050;-68
2021/10/27 10:21:00;;;;;;;13.53;8.78;;;;;;;12.63;47.98;101250.52;1727598;81;21147;-67
2021/10/27 10:23:27;;;;;;;15.78;8.85;;;;;;;12.66;46.80;101245.46;1736512;81;22514;-68
2021/10/27 10:25:57;;;;;;;18.87;9.30;;;;;;;12.62;47.22;101244.40;1713365;81;21086;-68
2021/10/27 10:28:26;;;;;;;16.02;8.50;;;;;;;12.68;47.27;101244.41;1736381;81;21212;-69
2021/10/27 10:30:56;;;;;;;13.10;8.38;;;;;;;12.82;47.39;101242.86;1767050;80;20951;-69
2021/10/27 10:33:41;;;;;;;15.18;8.90;;;;;;;12.96;46.90;101236.55;1736911;81;21859;-69
2021/10/27 10:36:26;;;;;;;15.03;9.08;;;;;;;13.12;46.46;101242.81;1740353;80;21128;-66
2021/10/27 10:44:32;;;;;;;13.50;8.50;;;;;;;13.13;45.86;101237.03;1718666;81;21065;-66
2021/10/27 10:58:06;;;;;;;18.12;10.32;;;;;;;13.11;44.52;101247.75;1742160;79;22775;-63
2021/10/27 11:22:13;;;;;;;15.35;10.13;;;;;;;12.77;44.84;101243.70;1739238;81;21506;-66
2021/10/27 11:26:07;;;;;;;18.50;11.43;;;;;;;12.55;46.15;101250.23;1724131;81;22370;-67
2021/10/27 11:40:56;;;;;;;16.93;10.45;;;;;;;12.38;47.10;101250.17;1721485;81;21663;-67
2021/10/27 11:48:04;;;;;;;16.95;9.55;;;;;;;12.31;47.28;101247.14;1693431;82;21126;-67
2021/10/27 11:50:35;;;;;;;18.85;10.48;;;;;;;12.30;47.33;101259.12;1733824;82;21193;-65
2021/10/27 11:53:04;;;;;;;23.02;10.55;;;;;;;12.25;47.74;101259.45;1766477;79;22420;-68
2021/10/27 11:55:31;;;;;;;17.50;11.53;;;;;;;12.20;47.93;101255.00;1772229;78;21122;-69
2021/10/27 11:57:57;;;;;;;17.27;10.38;;;;;;;12.18;47.89;101255.59;1767777;79;21145;-67
2021/10/27 12:03:13;;;;;;;18.12;10.03;;;;;;;12.24;47.72;101249.88;1743505;80;21094;-64
2021/10/27 12:05:51;;;;;;;15.53;10.20;;;;;;;12.22;47.82;101255.27;1770720;79;21039;-65
2021/10/27 12:11:04;;;;;;;17.57;10.68;;;;;;;12.19;48.00;101261.25;1769811;79;21160;-66
2021/10/27 12:16:42;;;;;;;19.60;12.45;;;;;;;12.20;48.02;101255.00;1760258;79;21058;-66
2021/10/27 12:19:26;;;;;;;15.95;10.93;;;;;;;12.19;48.04;101257.29;1783290;79;21117;-67
2021/10/27 12:22:04;;;;;;;19.25;11.05;;;;;;;12.16;48.17;101259.66;1802704;79;21482;-67
2021/10/27 12:24:35;;;;;;;16.30;10.50;;;;;;;12.14;48.47;101251.02;1788956;79;21054;-68
2021/10/27 12:27:07;;;;;;;19.57;10.95;;;;;;;12.19;48.47;101253.33;1792119;78;21062;-68
2021/10/27 12:29:37;;;;;;;18.42;10.30;;;;;;;12.21;48.37;101260.66;1786752;78;21069;-67
2021/10/27 12:32:12;;;;;;;17.85;10.78;;;;;;;12.23;48.39;101261.38;1801410;78;20995;-67
2021/10/27 12:34:58;;;;;;;16.45;10.98;;;;;;;12.26;48.42;101259.84;1789552;78;21027;-67
2021/10/27 12:40:36;;;;;;;21.90;12.50;;;;;;;12.25;48.54;101259.45;1783507;77;21664;-65
2021/10/27 12:43:07;;;;;;;20.77;11.43;;;;;;;12.24;48.65;101257.30;1794538;78;21192;-66
2021/10/27 12:45:46;;;;;;;20.40;12.23;;;;;;;12.30;48.69;101264.41;1791721;78;21039;-67
2021/10/27 12:48:17;;;;;;;19.70;12.90;;;;;;;12.33;48.92;101259.74;1762294;78;21541;-65
2021/10/27 12:51:00;;;;;;;20.57;13.45;;;;;;;12.38;48.99;101252.33;1764255;79;21607;-62
2021/10/27 12:53:42;;;;;;;18.27;12.35;;;;;;;12.51;49.01;101257.55;1768089;79;21160;-64
2021/10/27 12:56:15;;;;;;;21.95;12.63;;;;;;;12.60;48.75;101259.48;1796589;77;21100;-67
2021/10/27 12:58:51;;;;;;;24.30;12.95;;;;;;;12.66;48.96;101258.20;1799726;78;21070;-66
2021/10/27 13:22:35;;;;;;;21.97;12.55;;;;;;;12.44;50.13;101280.92;1745755;81;21810;-60
2021/10/27 13:30:46;;;;;;;18.90;11.80;;;;;;;12.17;51.41;101294.34;1743931;80;21121;-56
2021/10/27 13:33:02;;;;;;;16.07;10.98;;;;;;;12.20;51.74;101295.89;1738864;81;21075;-66
2021/10/27 13:35:29;;;;;;;16.75;11.95;;;;;;;12.31;51.89;101293.33;1725156;81;21079;-64
2021/10/27 13:37:55;;;;;;;19.20;12.53;;;;;;;12.34;51.69;101303.66;1744953;81;21334;-65
2021/10/27 13:40:24;;;;;;;18.20;11.80;;;;;;;12.37;51.50;101312.69;1726698;81;21137;-63
2021/10/27 13:42:59;;;;;;;18.42;12.37;;;;;;;12.37;51.61;101310.05;1744961;81;22322;-65
2021/10/27 13:45:46;;;;;;;17.10;11.95;;;;;;;12.43;51.35;101307.42;1715121;81;21063;-65
2021/10/27 13:48:12;;;;;;;17.23;11.28;;;;;;;12.45;51.34;101315.58;1736845;81;21141;-64
2021/10/27 13:59:15;;;;;;;18.42;11.88;;;;;;;12.59;50.77;101324.28;1722020;81;21143;-65
2021/10/27 14:06:00;;;;;;;22.32;13.18;;;;;;;12.63;50.26;101327.08;1739529;80;21096;-67
2021/10/27 14:06:55;;;;;;;26.25;12.25;;;;;;;12.47;50.53;101332.63;1710854;81;21187;-67
2021/10/27 14:09:38;;;;;;;19.05;11.73;;;;;;;12.33;50.76;101334.95;1738465;81;21673;-67
2021/10/27 14:22:52;;;;;;;19.52;12.05;;;;;;;11.69;52.58;101345.61;1773432;79;21133;-69
2021/10/27 14:39:36;;;;;;;22.35;12.65;;;;;;;11.24;54.65;101359.18;1778009;79;21072;-67
2021/10/27 15:19:55;;;;;;;18.20;10.10;;;;;;;10.84;56.72;101406.58;1802472;78;21097;-62
2021/10/27 15:22:38;;;;;;;22.22;11.30;;;;;;;10.83;56.87;101415.92;1797132;78;21077;-67
2021/10/27 15:25:20;;;;;;;19.02;9.88;;;;;;;10.79;57.20;101411.30;1791161;78;21047;-70
2021/10/27 15:35:20;;;;;;;15.48;9.80;;;;;;;11.05;56.96;101421.95;1791982;78;21134;-62
2021/10/27 15:40:38;;;;;;;13.53;9.15;;;;;;;11.08;57.12;101423.08;1796659;78;21034;-62
2021/10/27 15:50:30;;;;;;;17.52;9.30;;;;;;;11.04;57.18;101425.52;1740123;78;21235;-61
2021/10/27 15:51:05;;;;;;;14.75;7.03;;;;;;;10.94;57.60;101435.80;1790283;78;21445;-61
2021/10/27 15:53:34;;;;;;;12.70;8.00;;;;;;;10.90;57.97;101439.59;1793633;79;21036;-61
2021/10/27 15:56:01;;;;;;;13.32;8.10;;;;;;;10.85;58.05;101438.56;1745179;79;21093;-61
2021/10/27 15:58:28;;;;;;;13.78;8.35;;;;;;;10.87;58.00;101436.67;1795758;78;21082;-61
2021/10/27 16:00:54;;;;;;;12.33;7.87;;;;;;;10.97;57.82;101434.30;1771078;78;21936;-61